Terminal Aerodrome Forecast
Issued by NWS Jacksonville, FL

Home | Current Version | Previous Version | Text Only | Print | Product List | Glossary On
Versions: 1 2 3 4 5 6 7 8 9 10 11 12 13 14 15 16 17 18 19 20 21 22 23 24 25 26 27
000
FTUS42 KJAX 050538
TAFSSI
TAF
KSSI 050538Z 0506/0606 VRB03KT P6SM SCT025 BKN250
     FM051300 06008KT P6SM VCSH SCT020 BKN040
     FM051800 08010KT P6SM VCTS BKN040CB BKN250
     FM060000 07007KT P6SM SCT030 SCT250=

USA.gov is the U.S. government's official web portal to all federal, state and local government web resources and services.